sensor_id;sensor_type;location;lat;lon;timestamp;pressure;altitude;pressure_sealevel;temperature;humidity
74680;BME280;63211;48.548;2.704;2023-08-20T00:00:08;101253.72;;;23.41;69.19
74680;BME280;63211;48.548;2.704;2023-08-20T00:02:37;101257.31;;;23.42;68.42
74680;BME280;63211;48.548;2.704;2023-08-20T00:05:05;101264.47;;;23.43;69.07
74680;BME280;63211;48.548;2.704;2023-08-20T00:07:32;101263.66;;;23.42;68.68
74680;BME280;63211;48.548;2.704;2023-08-20T00:09:59;101259.22;;;23.41;68.92
74680;BME280;63211;48.548;2.704;2023-08-20T00:12:26;101244.19;;;23.32;69.20
74680;BME280;63211;48.548;2.704;2023-08-20T00:14:55;101261.38;;;23.39;68.93
74680;BME280;63211;48.548;2.704;2023-08-20T00:17:24;101259.22;;;23.41;68.84
74680;BME280;63211;48.548;2.704;2023-08-20T00:19:53;101254.94;;;23.34;68.89
74680;BME280;63211;48.548;2.704;2023-08-20T00:22:21;101261.88;;;23.36;69.12
74680;BME280;63211;48.548;2.704;2023-08-20T00:24:48;101279.78;;;23.39;68.87
74680;BME280;63211;48.548;2.704;2023-08-20T00:27:15;101259.94;;;23.37;68.76
74680;BME280;63211;48.548;2.704;2023-08-20T00:29:42;101264.63;;;23.36;69.05
74680;BME280;63211;48.548;2.704;2023-08-20T00:32:10;101257.59;;;23.28;68.92
74680;BME280;63211;48.548;2.704;2023-08-20T00:34:36;101262.09;;;23.35;68.68
74680;BME280;63211;48.548;2.704;2023-08-20T00:37:03;101262.94;;;23.35;68.81
74680;BME280;63211;48.548;2.704;2023-08-20T00:39:29;101268.19;;;23.37;68.61
74680;BME280;63211;48.548;2.704;2023-08-20T00:41:56;101259.25;;;23.29;68.87
74680;BME280;63211;48.548;2.704;2023-08-20T00:44:23;101263.78;;;23.36;68.77
74680;BME280;63211;48.548;2.704;2023-08-20T00:46:50;101268.44;;;23.35;68.58
74680;BME280;63211;48.548;2.704;2023-08-20T00:49:18;101224.22;;;23.08;68.96
74680;BME280;63211;48.548;2.704;2023-08-20T00:51:45;101258.53;;;23.34;68.96
74680;BME280;63211;48.548;2.704;2023-08-20T00:54:12;101258.19;;;23.30;68.50
74680;BME280;63211;48.548;2.704;2023-08-20T00:56:38;101278.00;;;23.33;68.50
74680;BME280;63211;48.548;2.704;2023-08-20T00:59:05;101284.94;;;23.35;68.75
74680;BME280;63211;48.548;2.704;2023-08-20T01:01:32;101274.19;;;23.34;68.81
74680;BME280;63211;48.548;2.704;2023-08-20T01:03:59;101278.84;;;23.33;68.49
74680;BME280;63211;48.548;2.704;2023-08-20T01:06:33;101275.25;;;23.33;68.58
74680;BME280;63211;48.548;2.704;2023-08-20T01:09:12;101270.34;;;23.35;68.58
74680;BME280;63211;48.548;2.704;2023-08-20T01:11:45;101266.94;;;23.27;68.30
74680;BME280;63211;48.548;2.704;2023-08-20T01:14:16;101266.66;;;23.29;68.72
74680;BME280;63211;48.548;2.704;2023-08-20T01:16:44;101268.09;;;23.31;68.63
74680;BME280;63211;48.548;2.704;2023-08-20T01:19:17;101276.94;;;23.34;68.09
74680;BME280;63211;48.548;2.704;2023-08-20T01:21:55;101279.69;;;23.34;68.44
74680;BME280;63211;48.548;2.704;2023-08-20T01:24:38;101276.34;;;23.31;68.62
74680;BME280;63211;48.548;2.704;2023-08-20T01:27:22;101278.25;;;23.31;68.42
74680;BME280;63211;48.548;2.704;2023-08-20T01:29:55;101280.16;;;23.30;68.05
74680;BME280;63211;48.548;2.704;2023-08-20T01:32:22;101275.19;;;23.27;68.33
74680;BME280;63211;48.548;2.704;2023-08-20T01:34:50;101291.66;;;23.27;68.67
74680;BME280;63211;48.548;2.704;2023-08-20T01:37:18;101286.50;;;23.31;68.38
74680;BME280;63211;48.548;2.704;2023-08-20T01:39:44;101274.00;;;23.23;68.21
74680;BME280;63211;48.548;2.704;2023-08-20T01:42:11;101264.09;;;23.22;68.71
74680;BME280;63211;48.548;2.704;2023-08-20T01:44:38;101272.16;;;23.29;68.64
74680;BME280;63211;48.548;2.704;2023-08-20T01:47:06;101248.22;;;23.13;68.73
74680;BME280;63211;48.548;2.704;2023-08-20T01:49:32;101267.25;;;23.31;68.31
74680;BME280;63211;48.548;2.704;2023-08-20T01:51:59;101275.50;;;23.31;68.64
74680;BME280;63211;48.548;2.704;2023-08-20T01:54:25;101275.75;;;23.29;68.33
74680;BME280;63211;48.548;2.704;2023-08-20T01:56:52;101278.72;;;23.28;68.16
74680;BME280;63211;48.548;2.704;2023-08-20T01:59:21;101277.94;;;23.27;68.43
74680;BME280;63211;48.548;2.704;2023-08-20T02:01:48;101278.50;;;23.29;68.20
74680;BME280;63211;48.548;2.704;2023-08-20T02:04:16;101270.41;;;23.23;68.14
74680;BME280;63211;48.548;2.704;2023-08-20T02:06:42;101274.59;;;23.25;68.30
74680;BME280;63211;48.548;2.704;2023-08-20T02:09:09;101268.16;;;23.20;68.32
74680;BME280;63211;48.548;2.704;2023-08-20T02:11:36;101291.38;;;23.29;68.31
74680;BME280;63211;48.548;2.704;2023-08-20T02:14:02;101292.47;;;23.28;67.91
74680;BME280;63211;48.548;2.704;2023-08-20T02:16:29;101286.97;;;23.28;68.33
74680;BME280;63211;48.548;2.704;2023-08-20T02:18:56;101290.84;;;23.27;67.93
74680;BME280;63211;48.548;2.704;2023-08-20T02:21:23;101285.56;;;23.25;68.46
74680;BME280;63211;48.548;2.704;2023-08-20T02:23:50;101283.66;;;23.26;68.28
74680;BME280;63211;48.548;2.704;2023-08-20T02:26:17;101281.41;;;23.23;68.41
74680;BME280;63211;48.548;2.704;2023-08-20T02:28:43;101288.56;;;23.24;68.31
74680;BME280;63211;48.548;2.704;2023-08-20T02:31:10;101298.47;;;23.25;67.94
74680;BME280;63211;48.548;2.704;2023-08-20T02:33:36;101306.13;;;23.23;68.56
74680;BME280;63211;48.548;2.704;2023-08-20T02:36:03;101293.47;;;23.22;68.47
74680;BME280;63211;48.548;2.704;2023-08-20T02:38:31;101286.91;;;23.23;68.11
74680;BME280;63211;48.548;2.704;2023-08-20T02:40:58;101289.63;;;23.23;68.29
74680;BME280;63211;48.548;2.704;2023-08-20T02:43:25;101276.16;;;23.21;68.24
74680;BME280;63211;48.548;2.704;2023-08-20T02:45:51;101284.16;;;23.23;67.91
74680;BME280;63211;48.548;2.704;2023-08-20T02:48:18;101278.66;;;23.23;67.67
74680;BME280;63211;48.548;2.704;2023-08-20T02:50:45;101274.84;;;23.24;68.39
74680;BME280;63211;48.548;2.704;2023-08-20T02:53:11;101275.66;;;23.24;68.11
74680;BME280;63211;48.548;2.704;2023-08-20T02:55:40;101266.22;;;23.20;68.24
74680;BME280;63211;48.548;2.704;2023-08-20T02:58:06;101274.84;;;23.24;68.68
74680;BME280;63211;48.548;2.704;2023-08-20T03:00:34;101275.06;;;23.22;68.59
74680;BME280;63211;48.548;2.704;2023-08-20T03:03:01;101281.41;;;23.23;68.35
74680;BME280;63211;48.548;2.704;2023-08-20T03:05:30;101282.00;;;23.25;68.42
74680;BME280;63211;48.548;2.704;2023-08-20T03:07:57;101283.91;;;23.24;68.65
74680;BME280;63211;48.548;2.704;2023-08-20T03:10:24;101283.31;;;23.22;68.42
74680;BME280;63211;48.548;2.704;2023-08-20T03:12:52;101291.31;;;23.24;68.51
74680;BME280;63211;48.548;2.704;2023-08-20T03:15:18;101281.03;;;23.19;68.92
74680;BME280;63211;48.548;2.704;2023-08-20T03:17:45;101282.47;;;23.22;68.57
74680;BME280;63211;48.548;2.704;2023-08-20T03:20:12;101286.06;;;23.22;69.05
74680;BME280;63211;48.548;2.704;2023-08-20T03:22:38;101286.06;;;23.22;68.57
74680;BME280;63211;48.548;2.704;2023-08-20T03:25:06;101244.94;;;22.99;68.50
74680;BME280;63211;48.548;2.704;2023-08-20T03:27:33;101285.22;;;23.22;68.74
74680;BME280;63211;48.548;2.704;2023-08-20T03:30:01;101283.78;;;23.19;68.71
74680;BME280;63211;48.548;2.704;2023-08-20T03:32:27;101279.38;;;23.18;68.63
74680;BME280;63211;48.548;2.704;2023-08-20T03:34:54;101276.03;;;23.16;68.62
74680;BME280;63211;48.548;2.704;2023-08-20T03:37:21;101287.38;;;23.20;68.75
74680;BME280;63211;48.548;2.704;2023-08-20T03:39:48;101278.31;;;23.19;68.37
74680;BME280;63211;48.548;2.704;2023-08-20T03:42:15;101279.13;;;23.20;68.10
74680;BME280;63211;48.548;2.704;2023-08-20T03:44:41;101274.59;;;23.14;68.51
74680;BME280;63211;48.548;2.704;2023-08-20T03:47:09;101270.19;;;23.13;68.38
74680;BME280;63211;48.548;2.704;2023-08-20T03:49:36;101277.72;;;23.17;68.36
74680;BME280;63211;48.548;2.704;2023-08-20T03:52:03;101286.78;;;23.18;68.68
74680;BME280;63211;48.548;2.704;2023-08-20T03:54:32;101291.44;;;23.17;68.20
74680;BME280;63211;48.548;2.704;2023-08-20T03:56:59;101290.59;;;23.17;68.47
74680;BME280;63211;48.548;2.704;2023-08-20T03:59:26;101286.44;;;23.14;68.06
74680;BME280;63211;48.548;2.704;2023-08-20T04:01:52;101285.25;;;23.10;68.46
74680;BME280;63211;48.548;2.704;2023-08-20T04:04:20;101295.25;;;23.16;68.21
74680;BME280;63211;48.548;2.704;2023-08-20T04:06:47;101293.34;;;23.17;68.10
74680;BME280;63211;48.548;2.704;2023-08-20T04:09:14;101293.59;;;23.15;68.01
74680;BME280;63211;48.548;2.704;2023-08-20T04:11:42;101289.41;;;23.13;68.07
74680;BME280;63211;48.548;2.704;2023-08-20T04:14:09;101291.94;;;23.14;68.36
74680;BME280;63211;48.548;2.704;2023-08-20T04:16:35;101290.84;;;23.15;68.05
74680;BME280;63211;48.548;2.704;2023-08-20T04:19:02;101294.66;;;23.14;68.25
74680;BME280;63211;48.548;2.704;2023-08-20T04:21:31;101293.59;;;23.15;67.83
74680;BME280;63211;48.548;2.704;2023-08-20T04:23:58;101296.59;;;23.14;68.07
74680;BME280;63211;48.548;2.704;2023-08-20T04:26:24;101299.09;;;23.15;68.30
74680;BME280;63211;48.548;2.704;2023-08-20T04:28:51;101305.66;;;23.14;68.38
74680;BME280;63211;48.548;2.704;2023-08-20T04:31:17;101305.66;;;23.14;68.00
74680;BME280;63211;48.548;2.704;2023-08-20T04:33:45;101291.50;;;23.06;68.29
74680;BME280;63211;48.548;2.704;2023-08-20T04:36:11;101307.56;;;23.14;68.20
74680;BME280;63211;48.548;2.704;2023-08-20T04:38:39;101306.97;;;23.12;68.32
74680;BME280;63211;48.548;2.704;2023-08-20T04:41:06;101298.66;;;23.07;68.20
74680;BME280;63211;48.548;2.704;2023-08-20T04:43:34;101310.31;;;23.14;67.85
74680;BME280;63211;48.548;2.704;2023-08-20T04:46:00;101308.06;;;23.11;67.85
74680;BME280;63211;48.548;2.704;2023-08-20T04:48:27;101309.13;;;23.10;68.12
74680;BME280;63211;48.548;2.704;2023-08-20T04:50:53;101311.63;;;23.11;68.30
74680;BME280;63211;48.548;2.704;2023-08-20T04:53:20;101314.97;;;23.13;68.17
74680;BME280;63211;48.548;2.704;2023-08-20T04:55:48;101311.03;;;23.09;67.84
74680;BME280;63211;48.548;2.704;2023-08-20T04:58:14;101323.47;;;23.12;68.02
74680;BME280;63211;48.548;2.704;2023-08-20T05:00:42;101310.72;;;23.06;67.71
74680;BME280;63211;48.548;2.704;2023-08-20T05:03:09;101317.13;;;23.11;68.12
74680;BME280;63211;48.548;2.704;2023-08-20T05:05:35;101300.44;;;23.01;68.08
74680;BME280;63211;48.548;2.704;2023-08-20T05:08:02;101315.47;;;23.10;68.18
74680;BME280;63211;48.548;2.704;2023-08-20T05:10:29;101323.69;;;23.10;68.14
74680;BME280;63211;48.548;2.704;2023-08-20T05:12:57;101316.78;;;23.08;67.82
74680;BME280;63211;48.548;2.704;2023-08-20T05:15:23;101323.94;;;23.09;67.86
74680;BME280;63211;48.548;2.704;2023-08-20T05:17:50;101327.53;;;23.09;68.05
74680;BME280;63211;48.548;2.704;2023-08-20T05:20:16;101326.59;;;23.04;67.86
74680;BME280;63211;48.548;2.704;2023-08-20T05:22:43;101324.69;;;23.04;67.70
74680;BME280;63211;48.548;2.704;2023-08-20T05:25:10;101333.16;;;23.03;67.72
74680;BME280;63211;48.548;2.704;2023-08-20T05:27:36;101331.84;;;23.05;67.72
74680;BME280;63211;48.548;2.704;2023-08-20T05:30:06;101339.34;;;23.10;67.67
74680;BME280;63211;48.548;2.704;2023-08-20T05:32:33;101340.66;;;23.07;68.04
74680;BME280;63211;48.548;2.704;2023-08-20T05:35:00;101345.59;;;23.05;68.19
74680;BME280;63211;48.548;2.704;2023-08-20T05:37:26;101346.16;;;23.07;67.71
74680;BME280;63211;48.548;2.704;2023-08-20T05:39:53;101331.50;;;23.02;67.90
74680;BME280;63211;48.548;2.704;2023-08-20T05:42:19;101352.47;;;23.08;68.13
74680;BME280;63211;48.548;2.704;2023-08-20T05:44:46;101351.66;;;23.07;67.58
74680;BME280;63211;48.548;2.704;2023-08-20T05:47:14;101355.50;;;23.06;67.82
74680;BME280;63211;48.548;2.704;2023-08-20T05:49:40;101339.72;;;23.02;68.06
74680;BME280;63211;48.548;2.704;2023-08-20T05:52:07;101352.63;;;23.01;68.10
74680;BME280;63211;48.548;2.704;2023-08-20T05:54:34;101353.31;;;23.08;67.83
74680;BME280;63211;48.548;2.704;2023-08-20T05:57:00;101350.47;;;23.03;68.03
74680;BME280;63211;48.548;2.704;2023-08-20T05:59:28;101356.56;;;23.05;67.52
74680;BME280;63211;48.548;2.704;2023-08-20T06:01:54;101360.16;;;23.06;68.16
74680;BME280;63211;48.548;2.704;2023-08-20T06:04:22;101354.31;;;23.02;67.42
74680;BME280;63211;48.548;2.704;2023-08-20T06:06:49;101352.16;;;23.04;67.67
74680;BME280;63211;48.548;2.704;2023-08-20T06:09:15;101354.06;;;23.04;67.54
74680;BME280;63211;48.548;2.704;2023-08-20T06:11:42;101358.47;;;23.05;67.57
74680;BME280;63211;48.548;2.704;2023-08-20T06:14:09;101358.47;;;23.05;67.73
74680;BME280;63211;48.548;2.704;2023-08-20T06:16:36;101361.94;;;23.00;67.64
74680;BME280;63211;48.548;2.704;2023-08-20T06:19:02;101370.31;;;23.05;67.64
74680;BME280;63211;48.548;2.704;2023-08-20T06:21:30;101367.78;;;23.04;67.82
74680;BME280;63211;48.548;2.704;2023-08-20T06:23:57;101361.34;;;22.98;68.05
74680;BME280;63211;48.548;2.704;2023-08-20T06:26:24;101371.97;;;23.06;67.87
74680;BME280;63211;48.548;2.704;2023-08-20T06:28:50;101366.72;;;23.05;67.58
74680;BME280;63211;48.548;2.704;2023-08-20T06:31:17;101363.13;;;23.04;67.85
74680;BME280;63211;48.548;2.704;2023-08-20T06:33:43;101367.78;;;23.04;67.77
74680;BME280;63211;48.548;2.704;2023-08-20T06:36:10;101368.41;;;23.06;67.42
74680;BME280;63211;48.548;2.704;2023-08-20T06:38:38;101374.97;;;23.05;67.51
74680;BME280;63211;48.548;2.704;2023-08-20T06:41:04;101380.44;;;23.05;67.61
74680;BME280;63211;48.548;2.704;2023-08-20T06:43:31;101379.84;;;23.03;67.87
74680;BME280;63211;48.548;2.704;2023-08-20T06:45:58;101388.94;;;23.03;67.88
74680;BME280;63211;48.548;2.704;2023-08-20T06:48:25;101398.00;;;23.04;67.77
74680;BME280;63211;48.548;2.704;2023-08-20T06:50:52;101388.22;;;22.96;67.87
74680;BME280;63211;48.548;2.704;2023-08-20T06:53:18;101402.66;;;23.03;68.01
74680;BME280;63211;48.548;2.704;2023-08-20T06:55:46;101401.81;;;23.03;67.94
74680;BME280;63211;48.548;2.704;2023-08-20T06:58:13;101405.41;;;23.03;67.70
74680;BME280;63211;48.548;2.704;2023-08-20T07:00:39;101398.25;;;23.02;67.96
74680;BME280;63211;48.548;2.704;2023-08-20T07:03:06;101395.38;;;22.97;67.56
74680;BME280;63211;48.548;2.704;2023-08-20T07:05:33;101409.00;;;23.04;67.78
74680;BME280;63211;48.548;2.704;2023-08-20T07:07:59;101397.16;;;23.03;68.03
74680;BME280;63211;48.548;2.704;2023-08-20T07:10:26;101399.31;;;23.01;67.89
74680;BME280;63211;48.548;2.704;2023-08-20T07:12:54;101406.25;;;23.04;67.48
74680;BME280;63211;48.548;2.704;2023-08-20T07:15:21;101404.34;;;23.04;67.75
74680;BME280;63211;48.548;2.704;2023-08-20T07:17:47;101391.78;;;22.96;68.04
74680;BME280;63211;48.548;2.704;2023-08-20T07:20:14;101400.75;;;23.04;67.85
74680;BME280;63211;48.548;2.704;2023-08-20T07:22:40;101401.09;;;23.07;67.88
74680;BME280;63211;48.548;2.704;2023-08-20T07:25:08;101395.59;;;23.07;67.73
74680;BME280;63211;48.548;2.704;2023-08-20T07:27:34;101390.09;;;23.07;67.81
74680;BME280;63211;48.548;2.704;2023-08-20T07:30:02;101409.22;;;23.14;67.54
74680;BME280;63211;48.548;2.704;2023-08-20T07:32:29;101405.25;;;23.10;67.85
74680;BME280;63211;48.548;2.704;2023-08-20T07:34:56;101402.75;;;23.08;67.87
74680;BME280;63211;48.548;2.704;2023-08-20T07:37:22;101409.91;;;23.09;68.38
74680;BME280;63211;48.548;2.704;2023-08-20T07:39:49;101406.84;;;23.06;67.97
74680;BME280;63211;48.548;2.704;2023-08-20T07:42:15;101403.25;;;23.05;68.32
74680;BME280;63211;48.548;2.704;2023-08-20T07:44:43;101404.78;;;23.13;68.32
74680;BME280;63211;48.548;2.704;2023-08-20T07:47:11;101407.16;;;23.09;68.36
74680;BME280;63211;48.548;2.704;2023-08-20T07:49:38;101413.25;;;23.11;67.94
74680;BME280;63211;48.548;2.704;2023-08-20T07:52:04;101411.13;;;23.25;68.14
74680;BME280;63211;48.548;2.704;2023-08-20T07:54:31;101410.88;;;23.26;69.10
74680;BME280;63211;48.548;2.704;2023-08-20T07:56:57;101420.06;;;23.32;68.63
74680;BME280;63211;48.548;2.704;2023-08-20T07:59:24;101411.44;;;23.40;68.65
74680;BME280;63211;48.548;2.704;2023-08-20T08:01:51;101416.81;;;23.47;68.62
74680;BME280;63211;48.548;2.704;2023-08-20T08:04:18;101406.78;;;23.52;68.39
74680;BME280;63211;48.548;2.704;2023-08-20T08:06:45;101416.56;;;23.60;68.19
74680;BME280;63211;48.548;2.704;2023-08-20T08:09:18;101413.81;;;23.60;67.86
74680;BME280;63211;48.548;2.704;2023-08-20T08:11:45;101414.19;;;23.63;67.59
74680;BME280;63211;48.548;2.704;2023-08-20T08:14:12;101423.63;;;23.68;67.53
74680;BME280;63211;48.548;2.704;2023-08-20T08:16:39;101414.28;;;23.69;67.57
74680;BME280;63211;48.548;2.704;2023-08-20T08:19:06;101424.44;;;23.68;67.71
74680;BME280;63211;48.548;2.704;2023-08-20T08:21:33;101419.28;;;23.72;68.15
74680;BME280;63211;48.548;2.704;2023-08-20T08:24:00;101417.47;;;23.77;67.67
74680;BME280;63211;48.548;2.704;2023-08-20T08:26:27;101414.59;;;23.84;67.49
74680;BME280;63211;48.548;2.704;2023-08-20T08:28:54;101392.59;;;23.72;67.54
74680;BME280;63211;48.548;2.704;2023-08-20T08:31:20;101426.19;;;23.86;67.75
74680;BME280;63211;48.548;2.704;2023-08-20T08:33:47;101427.59;;;23.88;67.89
74680;BME280;63211;48.548;2.704;2023-08-20T08:36:14;101430.34;;;23.88;68.55
74680;BME280;63211;48.548;2.704;2023-08-20T08:38:43;101433.78;;;23.95;67.84
74680;BME280;63211;48.548;2.704;2023-08-20T08:41:11;101427.44;;;23.95;68.38
74680;BME280;63211;48.548;2.704;2023-08-20T08:43:38;101432.69;;;23.96;68.35
74680;BME280;63211;48.548;2.704;2023-08-20T08:46:06;101429.47;;;23.99;68.17
74680;BME280;63211;48.548;2.704;2023-08-20T08:48:34;101429.56;;;24.05;68.04
74680;BME280;63211;48.548;2.704;2023-08-20T08:51:01;101425.03;;;23.98;67.65
74680;BME280;63211;48.548;2.704;2023-08-20T08:53:29;101436.41;;;24.02;68.31
74680;BME280;63211;48.548;2.704;2023-08-20T08:55:59;101435.91;;;24.05;68.19
74680;BME280;63211;48.548;2.704;2023-08-20T08:58:26;101424.41;;;24.08;68.25
74680;BME280;63211;48.548;2.704;2023-08-20T09:00:52;101433.25;;;24.10;68.31
74680;BME280;63211;48.548;2.704;2023-08-20T09:03:19;101429.41;;;24.11;68.26
74680;BME280;63211;48.548;2.704;2023-08-20T09:05:47;101424.47;;;24.13;68.07
74680;BME280;63211;48.548;2.704;2023-08-20T09:08:19;101418.75;;;24.15;68.25
74680;BME280;63211;48.548;2.704;2023-08-20T09:10:46;101422.56;;;24.14;68.13
74680;BME280;63211;48.548;2.704;2023-08-20T09:13:14;101420.16;;;24.17;68.33
74680;BME280;63211;48.548;2.704;2023-08-20T09:15:40;101411.31;;;24.15;68.12
74680;BME280;63211;48.548;2.704;2023-08-20T09:18:09;101409.16;;;24.17;68.20
74680;BME280;63211;48.548;2.704;2023-08-20T09:20:36;101413.09;;;24.21;68.43
74680;BME280;63211;48.548;2.704;2023-08-20T09:23:03;101404.59;;;24.23;68.13
74680;BME280;63211;48.548;2.704;2023-08-20T09:25:30;101406.50;;;24.22;68.04
74680;BME280;63211;48.548;2.704;2023-08-20T09:27:56;101407.13;;;24.24;68.43
74680;BME280;63211;48.548;2.704;2023-08-20T09:30:25;101411.56;;;24.25;68.10
74680;BME280;63211;48.548;2.704;2023-08-20T09:33:03;101412.16;;;24.27;68.26
74680;BME280;63211;48.548;2.704;2023-08-20T09:35:30;101405.31;;;24.30;67.80
74680;BME280;63211;48.548;2.704;2023-08-20T09:37:59;101406.72;;;24.32;67.84
74680;BME280;63211;48.548;2.704;2023-08-20T09:40:26;101399.28;;;24.33;68.14
74680;BME280;63211;48.548;2.704;2023-08-20T09:42:53;101382.47;;;24.18;68.16
74680;BME280;63211;48.548;2.704;2023-08-20T09:45:20;101406.72;;;24.32;67.90
74680;BME280;63211;48.548;2.704;2023-08-20T09:47:49;101402.88;;;24.33;68.15
74680;BME280;63211;48.548;2.704;2023-08-20T09:50:17;101407.28;;;24.35;67.99
74680;BME280;63211;48.548;2.704;2023-08-20T09:52:49;101366.72;;;24.13;68.13
74680;BME280;63211;48.548;2.704;2023-08-20T09:55:21;101404.28;;;24.36;67.69
74680;BME280;63211;48.548;2.704;2023-08-20T09:57:48;101407.88;;;24.37;67.96
74680;BME280;63211;48.548;2.704;2023-08-20T10:00:15;101412.56;;;24.36;68.10
74680;BME280;63211;48.548;2.704;2023-08-20T10:02:42;101410.63;;;24.37;67.90
74680;BME280;63211;48.548;2.704;2023-08-20T10:05:12;101408.38;;;24.33;68.01
74680;BME280;63211;48.548;2.704;2023-08-20T10:07:39;101414.47;;;24.36;67.82
74680;BME280;63211;48.548;2.704;2023-08-20T10:10:07;101408.13;;;24.35;67.76
74680;BME280;63211;48.548;2.704;2023-08-20T10:12:36;101412.81;;;24.35;68.13
74680;BME280;63211;48.548;2.704;2023-08-20T10:15:06;101413.38;;;24.37;67.89
74680;BME280;63211;48.548;2.704;2023-08-20T10:17:33;101411.47;;;24.37;67.90
74680;BME280;63211;48.548;2.704;2023-08-20T10:20:02;101413.38;;;24.37;68.03
74680;BME280;63211;48.548;2.704;2023-08-20T10:22:35;101409.81;;;24.36;68.00
74680;BME280;63211;48.548;2.704;2023-08-20T10:25:05;101403.72;;;24.34;67.95
74680;BME280;63211;48.548;2.704;2023-08-20T10:27:33;101401.31;;;24.38;67.92
74680;BME280;63211;48.548;2.704;2023-08-20T10:30:01;101404.03;;;24.38;67.80
74680;BME280;63211;48.548;2.704;2023-08-20T10:32:45;101405.13;;;24.37;67.79
74680;BME280;63211;48.548;2.704;2023-08-20T10:35:13;101405.72;;;24.39;67.96
74680;BME280;63211;48.548;2.704;2023-08-20T10:38:00;101404.16;;;24.43;67.71
74680;BME280;63211;48.548;2.704;2023-08-20T10:40:52;101408.56;;;24.44;67.65
74680;BME280;63211;48.548;2.704;2023-08-20T10:43:30;101402.47;;;24.42;67.74
74680;BME280;63211;48.548;2.704;2023-08-20T10:46:04;101408.22;;;24.40;67.73
74680;BME280;63211;48.548;2.704;2023-08-20T10:48:31;101404.38;;;24.41;67.77
74680;BME280;63211;48.548;2.704;2023-08-20T10:51:06;101393.72;;;24.45;67.94
74680;BME280;63211;48.548;2.704;2023-08-20T10:53:34;101392.06;;;24.44;68.15
74680;BME280;63211;48.548;2.704;2023-08-20T10:56:13;101399.22;;;24.45;68.03
74680;BME280;63211;48.548;2.704;2023-08-20T10:58:41;101395.06;;;24.42;68.31
74680;BME280;63211;48.548;2.704;2023-08-20T11:01:29;101393.97;;;24.43;68.00
74680;BME280;63211;48.548;2.704;2023-08-20T11:03:55;101382.97;;;24.43;68.08
74680;BME280;63211;48.548;2.704;2023-08-20T11:06:23;101389.31;;;24.44;67.91
74680;BME280;63211;48.548;2.704;2023-08-20T11:08:51;101390.13;;;24.44;67.92
74680;BME280;63211;48.548;2.704;2023-08-20T11:11:19;101382.72;;;24.45;67.83
74680;BME280;63211;48.548;2.704;2023-08-20T11:13:45;101386.53;;;24.44;67.90
74680;BME280;63211;48.548;2.704;2023-08-20T11:16:12;101378.03;;;24.45;67.79
74680;BME280;63211;48.548;2.704;2023-08-20T11:18:38;101377.78;;;24.47;67.95
74680;BME280;63211;48.548;2.704;2023-08-20T11:21:05;101383.31;;;24.47;67.79
74680;BME280;63211;48.548;2.704;2023-08-20T11:23:32;101384.97;;;24.48;67.81
74680;BME280;63211;48.548;2.704;2023-08-20T11:26:00;101376.63;;;24.43;67.80
74680;BME280;63211;48.548;2.704;2023-08-20T11:28:28;101376.03;;;24.41;67.68
74680;BME280;63211;48.548;2.704;2023-08-20T11:30:55;101380.31;;;24.48;67.85
74680;BME280;63211;48.548;2.704;2023-08-20T11:33:22;101379.97;;;24.45;67.66
74680;BME280;63211;48.548;2.704;2023-08-20T11:35:51;101380.31;;;24.48;67.78
74680;BME280;63211;48.548;2.704;2023-08-20T11:38:20;101383.31;;;24.47;67.91
74680;BME280;63211;48.548;2.704;2023-08-20T11:40:46;101380.31;;;24.48;67.49
74680;BME280;63211;48.548;2.704;2023-08-20T11:43:14;101379.47;;;24.48;67.71
74680;BME280;63211;48.548;2.704;2023-08-20T11:45:46;101380.88;;;24.50;67.62
74680;BME280;63211;48.548;2.704;2023-08-20T11:48:13;101360.19;;;24.48;67.74
74680;BME280;63211;48.548;2.704;2023-08-20T11:50:40;101368.19;;;24.49;67.65
74680;BME280;63211;48.548;2.704;2023-08-20T11:53:08;101372.63;;;24.50;67.51
74680;BME280;63211;48.548;2.704;2023-08-20T11:55:35;101370.97;;;24.49;67.47
74680;BME280;63211;48.548;2.704;2023-08-20T11:58:01;101369.88;;;24.50;67.50
74680;BME280;63211;48.548;2.704;2023-08-20T12:00:31;101367.63;;;24.47;67.63
74680;BME280;63211;48.548;2.704;2023-08-20T12:02:58;101371.78;;;24.50;67.33
74680;BME280;63211;48.548;2.704;2023-08-20T12:05:26;101366.03;;;24.51;67.55
74680;BME280;63211;48.548;2.704;2023-08-20T12:07:57;101356.50;;;24.42;67.63
74680;BME280;63211;48.548;2.704;2023-08-20T12:10:25;101362.44;;;24.51;67.31
74680;BME280;63211;48.548;2.704;2023-08-20T12:12:52;101357.19;;;24.49;67.21
74680;BME280;63211;48.548;2.704;2023-08-20T12:15:19;101361.88;;;24.49;67.40
74680;BME280;63211;48.548;2.704;2023-08-20T12:18:00;101360.78;;;24.50;67.42
74680;BME280;63211;48.548;2.704;2023-08-20T12:20:30;101356.69;;;24.52;66.82
74680;BME280;63211;48.548;2.704;2023-08-20T12:23:02;101363.09;;;24.58;66.87
74680;BME280;63211;48.548;2.704;2023-08-20T12:25:31;101360.34;;;24.58;66.85
74680;BME280;63211;48.548;2.704;2023-08-20T12:27:59;101357.50;;;24.53;67.14
74680;BME280;63211;48.548;2.704;2023-08-20T12:30:26;101358.44;;;24.58;66.93
74680;BME280;63211;48.548;2.704;2023-08-20T12:32:52;101347.91;;;24.55;66.93
74680;BME280;63211;48.548;2.704;2023-08-20T12:35:20;101355.75;;;24.63;66.89
74680;BME280;63211;48.548;2.704;2023-08-20T12:37:47;101352.09;;;24.58;67.02
74680;BME280;63211;48.548;2.704;2023-08-20T12:40:14;101355.91;;;24.57;67.32
74680;BME280;63211;48.548;2.704;2023-08-20T12:42:40;101348.44;;;24.52;67.56
74680;BME280;63211;48.548;2.704;2023-08-20T12:45:08;101347.59;;;24.52;67.78
74680;BME280;63211;48.548;2.704;2023-08-20T12:47:35;101350.34;;;24.52;67.74
74680;BME280;63211;48.548;2.704;2023-08-20T12:50:02;101345.34;;;24.49;67.83
74680;BME280;63211;48.548;2.704;2023-08-20T12:52:31;101348.94;;;24.49;67.76